Lakeside, Arizona
Current Conditions -  °F | °C
As of 2:55 PM on Tuesday 25 Nov 2014 (Local Time) from KSOW Reporting Station
Clear Clear  
Wind Chill: 44°   Ceiling: Unl
Heat Index: 48°   Visibility: 10mi
Dew Point: -6°   Wind: 10mph
Humidity: 10%   Direction: 10°N
Pressure: 30.4"   Gusts: NA
Location:  34.15°N, 109.98°W
Report Text: KSOW 252155Z AUTO 01009KT 10SM CLR 09/M21 A3040 RMK AO2
Loading
Personal Weather Stations






























Interactive Weather Map New forecast layout! Learn more

10-Day Weather Forecast

Advertisements
Track Severe Weather on mobile